Bent, New Mexico
Current Conditions -  °F | °C
As of 4:58 AM on Saturday 25 Oct 2014 (Local Time) from KHMN Reporting Station
Clear Clear  
Wind Chill: 11°   Ceiling: Unl
Heat Index: 11°   Visibility: 10mi
Dew Point:   Wind: 3mph
Humidity: 73%   Direction: 360°N
Pressure: 30.2"   Gusts: NA
Location:  33.16°N, 105.86°W
Report Text: KHMN 251058Z AUTO 36003KT 10SM CLR 12/07 A3020 RMK AO2 SLPNO T01150068 $
Loading
Personal Weather Stations






























Interactive Weather Map
Tropical Storm Tracking
New forecast layout! Learn more

10-Day Weather Forecast

Advertisements
Track Severe Weather on mobile